aviador You're here:

KORF Decoded Metar

NORFOLK in VA, USA
Report Time2018-07-23 15:26:00
UTC Time2018-07-23 15:46:23
Flight Rules vfr VFR
Wind150° at 20 Gusting to 26 kt
W.Decomp.*RWY 14: 18.9 kt HW 6.5 kt RCW
RWY 23: 6.5 kt HW 18.9 kt LCW
W.Rank150° ranks 26
Current wind is above 150° avg. (6.9)
Visibility9999 m
Phenomena:N/A
Clouds:Scattered 017 Hf
Broken 120 Hf
Expected CloudBase > 1,600 ft AGL from Temp-Dew spread
Ceiling12,000 ft
Temp27°C (ISA +12)
Dew Point23°C (79% RH)
Heat Index29.6°C
AAT25.1°C
QNH1015 hPa
Density Alt1,742 ft
Elevation46 ft
Report Wrong Elevation
Raw Report
KORF 231526Z 15020G26KT 10SM SCT017 BKN120 27/23 A2996=

Extra information for KORF:More info

Metar Taf Metar & Taf Last 4 Metars F.Rules Stats Wind Profile Meteogram Temp Stats Airport Information Weather charts Add Link Nearby VenuesMetar ALERT Operation Metar Decoded Social comments

AIRNAV info for KORF